createdAt,value
2023-04-18T00:00:32.567Z,9.63
2023-04-18T00:03:26.282Z,9.62
2023-04-18T00:05:55.345Z,9.61
2023-04-18T00:08:24.141Z,9.59
2023-04-18T00:10:56.000Z,9.57
2023-04-18T00:13:25.322Z,9.56
2023-04-18T00:15:54.494Z,9.54
2023-04-18T00:18:27.993Z,9.52
2023-04-18T00:20:59.757Z,9.49
2023-04-18T00:23:48.808Z,9.48
2023-04-18T00:26:17.397Z,9.49
2023-04-18T00:28:46.521Z,9.48
2023-04-18T00:31:28.340Z,9.47
2023-04-18T00:34:15.044Z,9.46
2023-04-18T00:36:57.304Z,9.45
2023-04-18T00:39:28.769Z,9.46
2023-04-18T00:41:57.543Z,9.47
2023-04-18T00:44:28.787Z,9.46
2023-04-18T00:46:57.484Z,9.45
2023-04-18T00:49:31.701Z,9.45
2023-04-18T00:52:09.114Z,9.44
2023-04-18T00:54:44.839Z,9.44
2023-04-18T00:57:14.048Z,9.45
2023-04-18T00:59:45.068Z,9.43
2023-04-18T01:02:13.803Z,9.43
2023-04-18T01:04:45.615Z,9.43
2023-04-18T01:07:16.661Z,9.43
2023-04-18T01:09:45.853Z,9.41
2023-04-18T01:12:14.731Z,9.41
2023-04-18T01:14:48.859Z,9.41
2023-04-18T01:17:19.598Z,9.40
2023-04-18T01:19:56.981Z,9.40
2023-04-18T01:22:31.186Z,9.41
2023-04-18T01:24:59.822Z,9.40
2023-04-18T01:27:31.360Z,9.40
2023-04-18T01:30:05.368Z,9.39
2023-04-18T01:32:37.450Z,9.39
2023-04-18T01:35:06.921Z,9.36
2023-04-18T01:37:36.760Z,9.35
2023-04-18T01:40:09.424Z,9.35
2023-04-18T01:42:45.366Z,9.33
2023-04-18T01:45:13.958Z,9.31
2023-04-18T01:47:51.225Z,9.31
2023-04-18T01:50:23.115Z,9.30
2023-04-18T01:52:59.983Z,9.30
2023-04-18T01:55:28.553Z,9.29
2023-04-18T01:58:00.104Z,9.29
2023-04-18T02:00:37.390Z,9.27
2023-04-18T02:03:22.830Z,9.27
2023-04-18T02:05:52.088Z,9.26
2023-04-18T02:08:20.745Z,9.25
2023-04-18T02:10:49.271Z,9.25
2023-04-18T02:13:28.755Z,9.24
2023-04-18T02:16:00.630Z,9.23
2023-04-18T02:18:34.872Z,9.21
2023-04-18T02:21:09.801Z,9.19
2023-04-18T02:23:38.525Z,9.19
2023-04-18T02:26:12.687Z,9.18
2023-04-18T02:28:41.565Z,9.17
2023-04-18T02:31:15.275Z,9.17
2023-04-18T02:33:46.006Z,9.15
2023-04-18T02:36:15.807Z,9.16
2023-04-18T02:38:50.034Z,9.15
2023-04-18T02:41:21.991Z,9.14
2023-04-18T02:44:00.711Z,9.13
2023-04-18T02:46:29.629Z,9.12
2023-04-18T02:48:58.669Z,9.12
2023-04-18T02:51:28.299Z,9.11
2023-04-18T02:53:57.599Z,9.11
2023-04-18T02:56:26.394Z,9.10
2023-04-18T02:59:13.687Z,9.09
2023-04-18T03:01:59.223Z,9.09
2023-04-18T03:04:30.873Z,9.08
2023-04-18T03:07:04.696Z,9.05
2023-04-18T03:09:47.000Z,9.04
2023-04-18T03:12:21.568Z,9.04
2023-04-18T03:14:50.172Z,9.03
2023-04-18T03:17:28.528Z,9.03
2023-04-18T03:19:57.120Z,9.02
2023-04-18T03:22:27.968Z,9.01
2023-04-18T03:25:00.878Z,9.01
2023-04-18T03:28:08.105Z,9.01
2023-04-18T03:30:39.859Z,9.02
2023-04-18T03:33:17.138Z,9.01
2023-04-18T03:35:47.229Z,9.01
2023-04-18T03:38:16.135Z,9.01
2023-04-18T03:40:45.134Z,9.03
2023-04-18T03:43:23.256Z,9.02
2023-04-18T03:45:54.400Z,9.02
2023-04-18T03:48:23.276Z,9.02
2023-04-18T03:50:52.072Z,9.03
2023-04-18T03:53:29.078Z,9.02
2023-04-18T03:55:58.132Z,9.02
2023-04-18T03:58:37.676Z,9.01
2023-04-18T04:01:08.096Z,9.02
2023-04-18T04:04:03.052Z,9.02
2023-04-18T04:06:32.507Z,9.02
2023-04-18T04:09:02.116Z,9.02
2023-04-18T04:11:39.815Z,9.04
2023-04-18T04:14:11.040Z,9.05
2023-04-18T04:16:43.403Z,9.06
2023-04-18T04:19:16.932Z,9.06
2023-04-18T04:22:05.905Z,9.06
2023-04-18T04:24:42.266Z,9.07
2023-04-18T04:27:13.739Z,9.07
2023-04-18T04:29:43.947Z,9.07
2023-04-18T04:32:17.123Z,9.07
2023-04-18T04:34:46.728Z,9.08
2023-04-18T04:37:18.811Z,9.10
2023-04-18T04:40:10.722Z,9.10
2023-04-18T04:42:47.362Z,9.10
2023-04-18T04:45:20.228Z,9.10
2023-04-18T04:47:51.766Z,9.12
2023-04-18T04:50:22.360Z,9.12
2023-04-18T04:52:54.031Z,9.13
2023-04-18T04:55:23.930Z,9.12
2023-04-18T04:58:03.694Z,9.11
2023-04-18T05:00:44.408Z,9.11
2023-04-18T05:03:18.365Z,9.11
2023-04-18T05:05:50.127Z,9.11
2023-04-18T05:08:19.001Z,9.10
2023-04-18T05:10:58.354Z,9.10
2023-04-18T05:13:30.307Z,9.10
2023-04-18T05:16:12.736Z,9.10
2023-04-18T05:18:41.753Z,9.09
2023-04-18T05:21:16.347Z,9.08
2023-04-18T05:23:48.085Z,9.08
2023-04-18T05:26:19.517Z,9.09
2023-04-18T05:28:48.429Z,9.09
2023-04-18T05:31:19.902Z,9.11
2023-04-18T05:33:53.275Z,9.12
2023-04-18T05:36:25.230Z,9.13
2023-04-18T05:38:53.960Z,9.13
2023-04-18T05:41:43.167Z,9.12
2023-04-18T05:44:14.763Z,9.14
2023-04-18T05:46:52.250Z,9.15
2023-04-18T05:49:21.145Z,9.17
2023-04-18T05:51:50.240Z,9.18
2023-04-18T05:54:21.581Z,9.19
2023-04-18T05:56:57.237Z,9.21
2023-04-18T05:59:27.034Z,9.20
2023-04-18T06:01:55.561Z,9.22
2023-04-18T06:04:24.665Z,9.23
2023-04-18T06:06:56.592Z,9.23
2023-04-18T06:09:25.286Z,9.22
2023-04-18T06:11:54.378Z,9.24
2023-04-18T06:14:22.953Z,9.25
2023-04-18T06:16:51.758Z,9.27
2023-04-18T06:19:23.761Z,9.28
2023-04-18T06:21:53.219Z,9.31
2023-04-18T06:24:23.967Z,9.33
2023-04-18T06:27:00.228Z,9.34
2023-04-18T06:29:33.763Z,9.35
2023-04-18T06:32:07.243Z,9.37
2023-04-18T06:34:41.102Z,9.39
2023-04-18T06:37:09.951Z,9.41
2023-04-18T06:39:38.585Z,9.42
2023-04-18T06:42:09.725Z,9.43
2023-04-18T06:44:45.882Z,9.41
2023-04-18T06:47:16.930Z,9.40
2023-04-18T06:49:45.623Z,9.41
2023-04-18T06:52:14.732Z,9.41
2023-04-18T06:54:43.741Z,9.41
2023-04-18T06:57:16.080Z,9.42
2023-04-18T06:59:44.946Z,9.43
2023-04-18T07:02:13.905Z,9.42
2023-04-18T07:04:43.084Z,9.42
2023-04-18T07:07:12.157Z,9.43
2023-04-18T07:09:40.910Z,9.44
2023-04-18T07:12:09.875Z,9.46
2023-04-18T07:14:39.253Z,9.46
2023-04-18T07:17:07.942Z,9.49
2023-04-18T07:19:36.710Z,9.51
2023-04-18T07:22:08.257Z,9.52
2023-04-18T07:24:37.053Z,9.54
2023-04-18T07:27:09.854Z,9.54
2023-04-18T07:29:42.813Z,9.56
2023-04-18T07:32:12.525Z,9.57
2023-04-18T07:34:45.831Z,9.59
2023-04-18T07:37:19.324Z,9.62
2023-04-18T07:39:53.139Z,9.63
2023-04-18T07:42:21.804Z,9.66
2023-04-18T07:44:50.707Z,9.69
2023-04-18T07:47:31.379Z,9.71
2023-04-18T07:50:04.980Z,9.76
2023-04-18T07:52:37.385Z,9.76
2023-04-18T07:55:07.984Z,9.78
2023-04-18T07:57:36.916Z,9.79
2023-04-18T08:00:07.234Z,9.80
2023-04-18T08:02:42.115Z,9.81
2023-04-18T08:05:11.249Z,9.81
2023-04-18T08:07:40.190Z,9.83
2023-04-18T08:10:12.189Z,9.88
2023-04-18T08:12:41.386Z,9.90
2023-04-18T08:15:10.901Z,9.91
2023-04-18T08:17:42.921Z,9.95
2023-04-18T08:20:13.369Z,9.98
2023-04-18T08:23:02.077Z,10.02
2023-04-18T08:25:36.706Z,10.07
2023-04-18T08:28:05.743Z,10.12
2023-04-18T08:30:36.991Z,10.16
2023-04-18T08:33:06.000Z,10.23
2023-04-18T08:35:46.452Z,10.29
2023-04-18T08:38:22.692Z,10.33
2023-04-18T08:40:51.510Z,10.36
2023-04-18T08:43:22.955Z,10.40
2023-04-18T08:45:59.789Z,10.42
2023-04-18T08:48:28.913Z,10.43
2023-04-18T08:50:59.164Z,10.43
2023-04-18T08:53:28.658Z,10.42
2023-04-18T08:55:58.284Z,10.44
2023-04-18T08:58:28.060Z,10.45
2023-04-18T09:00:57.303Z,10.45
2023-04-18T09:03:43.402Z,10.47
2023-04-18T09:06:30.478Z,10.50
2023-04-18T09:08:59.309Z,10.54
2023-04-18T09:11:34.578Z,10.58
2023-04-18T09:14:03.921Z,10.59
2023-04-18T09:16:48.521Z,10.60
2023-04-18T09:19:21.780Z,10.63
2023-04-18T09:21:59.225Z,10.67
2023-04-18T09:24:32.180Z,10.69
2023-04-18T09:27:12.299Z,10.72
2023-04-18T09:29:47.248Z,10.74
2023-04-18T09:32:27.363Z,10.79
2023-04-18T09:35:05.680Z,10.80
2023-04-18T09:37:35.752Z,10.85
2023-04-18T09:40:18.428Z,10.88
2023-04-18T09:42:51.276Z,10.89
2023-04-18T09:45:20.946Z,10.92
2023-04-18T09:47:50.538Z,10.96
2023-04-18T09:50:21.623Z,11.00
2023-04-18T09:52:51.777Z,11.05
2023-04-18T09:55:33.852Z,11.08
2023-04-18T09:58:04.540Z,11.11
2023-04-18T10:00:34.546Z,11.16
2023-04-18T10:03:10.986Z,11.21
2023-04-18T10:05:41.817Z,11.25
2023-04-18T10:08:13.198Z,11.25
2023-04-18T10:10:41.646Z,11.25
2023-04-18T10:13:14.275Z,11.28
2023-04-18T10:15:44.271Z,11.31
2023-04-18T10:18:17.000Z,11.32
2023-04-18T10:21:01.001Z,11.31
2023-04-18T10:23:36.612Z,11.32
2023-04-18T10:26:07.864Z,11.31
2023-04-18T10:29:02.862Z,11.31
2023-04-18T10:31:39.532Z,11.35
2023-04-18T10:34:11.023Z,11.41
2023-04-18T10:37:06.357Z,11.49
2023-04-18T10:40:07.068Z,11.60
2023-04-18T10:42:48.160Z,11.66
2023-04-18T10:45:27.035Z,11.70
2023-04-18T10:48:25.137Z,11.73
2023-04-18T10:51:14.524Z,11.75
2023-04-18T10:53:54.367Z,11.75
2023-04-18T10:56:23.847Z,11.73
2023-04-18T10:58:53.878Z,11.72
2023-04-18T11:01:33.140Z,11.70
2023-04-18T11:04:02.437Z,11.69
2023-04-18T11:06:31.821Z,11.69
2023-04-18T11:09:11.882Z,11.68
2023-04-18T11:11:44.326Z,11.69
2023-04-18T11:14:13.326Z,11.69
2023-04-18T11:16:45.942Z,11.72
2023-04-18T11:19:25.909Z,11.74
2023-04-18T11:22:01.314Z,11.79
2023-04-18T11:24:30.425Z,11.85
2023-04-18T11:27:00.544Z,11.91
2023-04-18T11:29:32.917Z,12.00
2023-04-18T11:32:23.173Z,12.11
2023-04-18T11:34:55.348Z,12.26
2023-04-18T11:37:24.144Z,12.36
2023-04-18T11:39:56.027Z,12.45
2023-04-18T11:42:31.566Z,12.54
2023-04-18T11:45:00.884Z,12.62
2023-04-18T11:47:32.013Z,12.70
2023-04-18T11:50:06.927Z,12.77
2023-04-18T11:52:36.892Z,12.83
2023-04-18T11:55:25.145Z,12.85
2023-04-18T11:57:59.332Z,12.84
2023-04-18T12:00:40.101Z,12.82
2023-04-18T12:03:23.223Z,12.77
2023-04-18T12:06:03.337Z,12.73
2023-04-18T12:08:33.093Z,12.68
2023-04-18T12:11:02.090Z,12.61
2023-04-18T12:13:35.244Z,12.55
2023-04-18T12:16:04.460Z,12.50
2023-04-18T12:18:34.287Z,12.47
2023-04-18T12:21:06.221Z,12.44
2023-04-18T12:23:40.543Z,12.41
2023-04-18T12:26:21.285Z,12.40
2023-04-18T12:28:54.205Z,12.38
2023-04-18T12:31:23.306Z,12.37
2023-04-18T12:33:54.729Z,12.35
2023-04-18T12:36:28.649Z,12.33
2023-04-18T12:38:57.538Z,12.34
2023-04-18T12:41:28.881Z,12.35
2023-04-18T12:43:57.748Z,12.34
2023-04-18T12:46:26.717Z,12.32
2023-04-18T12:48:57.325Z,12.32
2023-04-18T12:51:28.014Z,12.30
2023-04-18T12:54:05.868Z,12.27
2023-04-18T12:56:34.934Z,12.24
2023-04-18T12:59:04.328Z,12.24
2023-04-18T13:01:33.157Z,12.25
2023-04-18T13:04:12.270Z,12.25
2023-04-18T13:06:42.989Z,12.24
2023-04-18T13:09:12.540Z,12.25
2023-04-18T13:11:41.797Z,12.28
2023-04-18T13:14:10.594Z,12.31
2023-04-18T13:16:43.854Z,12.35
2023-04-18T13:19:15.876Z,12.43
2023-04-18T13:21:46.475Z,12.52
2023-04-18T13:24:17.409Z,12.62
2023-04-18T13:26:47.853Z,12.73
2023-04-18T13:29:19.997Z,12.79
2023-04-18T13:31:49.117Z,12.86
2023-04-18T13:34:18.398Z,12.94
2023-04-18T13:36:53.225Z,13.03
2023-04-18T13:39:30.521Z,13.12
2023-04-18T13:42:03.820Z,13.18
2023-04-18T13:44:32.816Z,13.22
2023-04-18T13:47:03.033Z,13.26
2023-04-18T13:49:35.682Z,13.31
2023-04-18T13:52:05.174Z,13.36
2023-04-18T13:54:34.004Z,13.39
2023-04-18T13:57:04.677Z,13.41
2023-04-18T13:59:34.168Z,13.43
2023-04-18T14:02:08.071Z,13.45
2023-04-18T14:04:37.839Z,13.47
2023-04-18T14:07:09.482Z,13.46
2023-04-18T14:09:38.737Z,13.44
2023-04-18T14:12:10.663Z,13.42
2023-04-18T14:14:39.364Z,13.40
2023-04-18T14:17:08.567Z,13.39
2023-04-18T14:19:46.658Z,13.39
2023-04-18T14:22:15.524Z,13.42
2023-04-18T14:24:44.037Z,13.44
2023-04-18T14:27:12.718Z,13.46
2023-04-18T14:29:41.407Z,13.48
2023-04-18T14:32:10.099Z,13.49
2023-04-18T14:34:38.917Z,13.52
2023-04-18T14:37:07.872Z,13.54
2023-04-18T14:39:38.199Z,13.56
2023-04-18T14:42:06.895Z,13.56
2023-04-18T14:44:35.992Z,13.56
2023-04-18T14:47:05.928Z,13.57
2023-04-18T14:49:34.776Z,13.56
2023-04-18T14:52:08.188Z,13.57
2023-04-18T14:54:36.965Z,13.57
2023-04-18T14:57:08.772Z,13.56
2023-04-18T14:59:37.820Z,13.56
2023-04-18T15:02:06.673Z,13.56
2023-04-18T15:04:41.833Z,13.57
2023-04-18T15:07:10.642Z,13.63
2023-04-18T15:09:40.155Z,13.68
2023-04-18T15:12:09.238Z,13.75
2023-04-18T15:14:38.244Z,13.81
2023-04-18T15:17:07.531Z,13.86
2023-04-18T15:19:39.658Z,13.93
2023-04-18T15:22:09.202Z,13.99
2023-04-18T15:24:41.594Z,14.04
2023-04-18T15:27:11.159Z,14.08
2023-04-18T15:29:40.799Z,14.07
2023-04-18T15:32:13.206Z,14.07
2023-04-18T15:34:42.153Z,14.10
2023-04-18T15:37:11.162Z,14.11
2023-04-18T15:39:41.375Z,14.11
2023-04-18T15:42:10.509Z,14.11
2023-04-18T15:44:39.693Z,14.09
2023-04-18T15:47:12.493Z,14.08
2023-04-18T15:49:41.340Z,14.06
2023-04-18T15:52:10.311Z,14.03
2023-04-18T15:54:42.096Z,13.99
2023-04-18T15:57:11.821Z,13.97
2023-04-18T15:59:41.117Z,13.92
2023-04-18T16:02:10.459Z,13.86
2023-04-18T16:04:39.647Z,13.80
2023-04-18T16:07:09.442Z,13.75
2023-04-18T16:09:38.417Z,13.71
2023-04-18T16:12:08.319Z,13.67
2023-04-18T16:14:40.181Z,13.65
2023-04-18T16:17:09.199Z,13.60
2023-04-18T16:19:41.490Z,13.56
2023-04-18T16:22:12.382Z,13.50
2023-04-18T16:24:42.340Z,13.44
2023-04-18T16:27:11.750Z,13.37
2023-04-18T16:29:40.722Z,13.30
2023-04-18T16:32:11.076Z,13.24
2023-04-18T16:34:42.997Z,13.18
2023-04-18T16:37:15.110Z,13.12
2023-04-18T16:39:44.472Z,13.07
2023-04-18T16:42:15.688Z,13.03
2023-04-18T16:44:46.453Z,13.00
2023-04-18T16:47:15.541Z,12.97
2023-04-18T16:49:47.010Z,12.93
2023-04-18T16:52:17.430Z,12.90
2023-04-18T16:54:46.831Z,12.87
2023-04-18T16:57:17.773Z,12.84
2023-04-18T16:59:46.443Z,12.81
2023-04-18T17:02:18.825Z,12.76
2023-04-18T17:04:50.868Z,12.70
2023-04-18T17:07:19.884Z,12.67
2023-04-18T17:09:49.079Z,12.66
2023-04-18T17:12:21.241Z,12.63
2023-04-18T17:14:50.337Z,12.62
2023-04-18T17:17:26.703Z,12.60
2023-04-18T17:19:55.791Z,12.58
2023-04-18T17:22:25.825Z,12.55
2023-04-18T17:24:57.885Z,12.50
2023-04-18T17:27:27.413Z,12.48
2023-04-18T17:29:56.438Z,12.46
2023-04-18T17:32:25.103Z,12.45
2023-04-18T17:34:56.832Z,12.44
2023-04-18T17:37:28.857Z,12.41
2023-04-18T17:39:59.085Z,12.38
2023-04-18T17:42:28.665Z,12.35
2023-04-18T17:44:58.332Z,12.32
2023-04-18T17:47:31.113Z,12.31
2023-04-18T17:50:01.861Z,12.29
2023-04-18T17:52:31.578Z,12.26
2023-04-18T17:55:04.457Z,12.23
2023-04-18T17:57:35.434Z,12.20
2023-04-18T18:00:10.679Z,12.18
2023-04-18T18:02:43.029Z,12.17
2023-04-18T18:05:17.714Z,12.14
2023-04-18T18:07:48.489Z,12.11
2023-04-18T18:10:19.834Z,12.10
2023-04-18T18:12:50.314Z,12.10
2023-04-18T18:15:19.966Z,12.08
2023-04-18T18:17:50.998Z,12.07
2023-04-18T18:20:21.724Z,12.07
2023-04-18T18:22:51.885Z,12.06
2023-04-18T18:25:23.098Z,12.04
2023-04-18T18:27:54.914Z,12.05
2023-04-18T18:30:24.522Z,12.04
2023-04-18T18:32:54.767Z,12.07
2023-04-18T18:35:24.430Z,12.05
2023-04-18T18:37:53.565Z,12.04
2023-04-18T18:40:22.652Z,12.01
2023-04-18T18:42:54.921Z,11.98
2023-04-18T18:45:26.378Z,11.95
2023-04-18T18:48:00.252Z,11.94
2023-04-18T18:50:30.813Z,11.91
2023-04-18T18:53:06.832Z,11.90
2023-04-18T18:55:37.156Z,11.88
2023-04-18T18:58:08.935Z,11.85
2023-04-18T19:00:42.958Z,11.82
2023-04-18T19:03:13.785Z,11.80
2023-04-18T19:05:54.555Z,11.78
2023-04-18T19:08:25.058Z,11.76
2023-04-18T19:10:55.600Z,11.75
2023-04-18T19:13:27.603Z,11.73
2023-04-18T19:15:59.483Z,11.73
2023-04-18T19:18:31.478Z,11.73
2023-04-18T19:21:01.681Z,11.72
2023-04-18T19:23:34.366Z,11.72
2023-04-18T19:26:04.503Z,11.70
2023-04-18T19:28:35.010Z,11.69
2023-04-18T19:31:05.993Z,11.66
2023-04-18T19:33:36.113Z,11.65
2023-04-18T19:36:06.500Z,11.65
2023-04-18T19:38:36.295Z,11.62
2023-04-18T19:41:06.219Z,11.62
2023-04-18T19:43:39.072Z,11.59
2023-04-18T19:46:10.790Z,11.58
2023-04-18T19:48:41.782Z,11.56
2023-04-18T19:51:13.172Z,11.54
2023-04-18T19:53:44.144Z,11.53
2023-04-18T19:56:17.913Z,11.52
2023-04-18T19:58:49.330Z,11.52
2023-04-18T20:01:21.762Z,11.51
2023-04-18T20:03:53.198Z,11.51
2023-04-18T20:06:24.773Z,11.52
2023-04-18T20:08:55.225Z,11.51
2023-04-18T20:11:25.328Z,11.52
2023-04-18T20:13:56.099Z,11.51
2023-04-18T20:16:25.747Z,11.51
2023-04-18T20:18:57.112Z,11.52
2023-04-18T20:21:26.325Z,11.51
2023-04-18T20:23:57.204Z,11.49
2023-04-18T20:26:26.784Z,11.48
2023-04-18T20:28:57.226Z,11.46
2023-04-18T20:31:26.820Z,11.43
2023-04-18T20:33:57.009Z,11.41
2023-04-18T20:36:31.754Z,11.39
2023-04-18T20:39:21.724Z,11.38
2023-04-18T20:41:51.761Z,11.36
2023-04-18T20:44:47.526Z,11.35
2023-04-18T20:47:39.325Z,11.34
2023-04-18T20:50:42.299Z,11.35
2023-04-18T20:53:29.881Z,11.34
2023-04-18T20:56:27.476Z,11.33
2023-04-18T20:59:02.304Z,11.30
2023-04-18T21:01:55.061Z,11.28
2023-04-18T21:04:27.869Z,11.26
2023-04-18T21:07:25.183Z,11.25
2023-04-18T21:10:11.414Z,11.22
2023-04-18T21:12:46.864Z,11.20
2023-04-18T21:15:41.595Z,11.18
2023-04-18T21:18:34.184Z,11.16
2023-04-18T21:21:12.074Z,11.13
2023-04-18T21:23:59.304Z,11.11
2023-04-18T21:26:28.895Z,11.09
2023-04-18T21:29:58.387Z,11.08
2023-04-18T21:32:52.013Z,11.05
2023-04-18T21:35:29.989Z,11.06
2023-04-18T21:38:04.620Z,11.06
2023-04-18T21:40:40.365Z,11.07
2023-04-18T21:43:12.215Z,11.07
2023-04-18T21:45:44.541Z,11.08
2023-04-18T21:48:46.460Z,11.09
2023-04-18T21:51:17.571Z,11.09
2023-04-18T21:54:09.918Z,11.10
2023-04-18T21:57:24.406Z,11.12
2023-04-18T21:59:57.510Z,11.12
2023-04-18T22:02:56.017Z,11.13
2023-04-18T22:05:33.509Z,11.13
2023-04-18T22:08:35.493Z,11.13
2023-04-18T22:11:09.411Z,11.13
2023-04-18T22:13:38.223Z,11.12
2023-04-18T22:16:09.689Z,11.12
2023-04-18T22:18:38.554Z,11.11
2023-04-18T22:21:09.659Z,11.11
2023-04-18T22:23:38.372Z,11.10
2023-04-18T22:26:06.967Z,11.10
2023-04-18T22:28:36.178Z,11.08
2023-04-18T22:31:05.538Z,11.10
2023-04-18T22:33:34.503Z,11.09
2023-04-18T22:36:03.779Z,11.08
2023-04-18T22:38:32.445Z,11.09
2023-04-18T22:41:00.984Z,11.09
2023-04-18T22:43:38.733Z,11.09
2023-04-18T22:46:07.783Z,11.08
2023-04-18T22:48:36.615Z,11.07
2023-04-18T22:51:06.522Z,11.06
2023-04-18T22:53:37.644Z,11.06
2023-04-18T22:56:09.427Z,11.05
2023-04-18T22:58:38.025Z,11.04
2023-04-18T23:01:06.852Z,11.03
2023-04-18T23:03:35.858Z,11.04
2023-04-18T23:06:10.112Z,11.04
2023-04-18T23:08:41.560Z,11.02
2023-04-18T23:11:13.727Z,11.00
2023-04-18T23:13:42.956Z,10.98
2023-04-18T23:16:11.862Z,10.97
2023-04-18T23:18:40.507Z,10.95
2023-04-18T23:21:12.464Z,10.93
2023-04-18T23:23:41.121Z,10.90
2023-04-18T23:26:15.549Z,10.86
2023-04-18T23:28:47.425Z,10.84
2023-04-18T23:31:16.570Z,10.82
2023-04-18T23:33:49.290Z,10.80
2023-04-18T23:36:21.489Z,10.79
2023-04-18T23:38:52.937Z,10.78
2023-04-18T23:41:21.844Z,10.73
2023-04-18T23:43:58.650Z,10.71
2023-04-18T23:46:30.165Z,10.67
2023-04-18T23:49:01.189Z,10.66
2023-04-18T23:51:32.631Z,10.64
2023-04-18T23:54:03.572Z,10.62
2023-04-18T23:56:35.146Z,10.59
2023-04-18T23:59:07.412Z,10.57
